createdAt,value
2023-05-08T00:02:05.105Z,101135.19
2023-05-08T00:07:07.887Z,101131.09
2023-05-08T00:12:10.656Z,101130.56
2023-05-08T00:17:14.954Z,101127.31
2023-05-08T00:22:17.739Z,101126.66
2023-05-08T00:27:20.703Z,101126.84
2023-05-08T00:32:24.982Z,101130.69
2023-05-08T00:37:28.575Z,101133.59
2023-05-08T00:42:31.368Z,101123.06
2023-05-08T00:47:35.519Z,101123.06
2023-05-08T00:52:38.316Z,101128.72
2023-05-08T00:57:41.217Z,101137.75
2023-05-08T01:02:45.511Z,101126.44
2023-05-08T01:07:48.540Z,101114.94
2023-05-08T01:12:57.656Z,101132.25
2023-05-08T01:18:05.949Z,101135.13
2023-05-08T01:23:41.912Z,101138.00
2023-05-08T01:29:07.853Z,101109.31
2023-05-08T01:34:15.393Z,101126.06
2023-05-08T01:39:19.915Z,101139.59
2023-05-08T01:44:23.068Z,101147.63
2023-05-08T01:49:28.562Z,101122.69
2023-05-08T01:54:37.367Z,101148.03
2023-05-08T01:59:42.988Z,101145.66
2023-05-08T02:04:48.017Z,101150.28
2023-05-08T02:09:50.820Z,101153.13
2023-05-08T02:14:54.177Z,101144.44
2023-05-08T02:19:58.756Z,101145.28
2023-05-08T02:25:01.541Z,101155.38
2023-05-08T02:30:04.837Z,101148.47
2023-05-08T02:35:10.021Z,101156.63
2023-05-08T02:40:14.027Z,101154.91
2023-05-08T02:45:17.028Z,101158.53
2023-05-08T02:50:24.725Z,101153.28
2023-05-08T02:55:34.196Z,101148.88
2023-05-08T03:00:44.747Z,101144.66
2023-05-08T03:05:52.674Z,101164.38
2023-05-08T03:10:56.625Z,101150.28
2023-05-08T03:16:01.269Z,101158.22
2023-05-08T03:21:05.791Z,101156.63
2023-05-08T03:26:08.626Z,101156.03
2023-05-08T03:31:12.583Z,101161.72
2023-05-08T03:36:17.050Z,101159.19
2023-05-08T03:41:19.912Z,101167.53
2023-05-08T03:46:23.539Z,101168.59
2023-05-08T03:51:28.842Z,101162.44
2023-05-08T03:56:31.964Z,101162.56
2023-05-08T04:01:40.468Z,101171.56
2023-05-08T04:06:51.893Z,101159.22
2023-05-08T04:12:06.174Z,101175.47
2023-05-08T04:17:11.769Z,101181.63
2023-05-08T04:22:16.028Z,101181.63
2023-05-08T04:27:18.881Z,101192.34
2023-05-08T04:32:21.936Z,101198.69
2023-05-08T04:37:27.075Z,101189.94
2023-05-08T04:42:31.527Z,101196.00
2023-05-08T04:47:36.535Z,101204.03
2023-05-08T04:52:41.408Z,101205.75
2023-05-08T04:57:44.519Z,101204.81
2023-05-08T05:02:47.901Z,101215.44
2023-05-08T05:07:52.138Z,101214.56
2023-05-08T05:12:56.420Z,101216.28
2023-05-08T05:17:59.496Z,101224.25
2023-05-08T05:23:03.909Z,101223.28
2023-05-08T05:28:07.332Z,101224.13
2023-05-08T05:33:10.259Z,101225.00
2023-05-08T05:38:14.698Z,101218.59
2023-05-08T05:43:17.732Z,101231.16
2023-05-08T05:48:21.439Z,101238.25
2023-05-08T05:53:26.033Z,101229.25
2023-05-08T05:58:29.443Z,101233.53
2023-05-08T06:03:32.888Z,101236.03
2023-05-08T06:08:37.145Z,101228.94
2023-05-08T06:13:40.854Z,101227.72
2023-05-08T06:18:44.092Z,101229.31
2023-05-08T06:23:48.354Z,101231.03
2023-05-08T06:28:51.159Z,101233.72
2023-05-08T06:33:53.964Z,101242.28
2023-05-08T06:38:58.161Z,101235.09
2023-05-08T06:44:01.008Z,101231.25
2023-05-08T06:49:03.895Z,101238.09
2023-05-08T06:54:08.645Z,101231.75
2023-05-08T06:59:11.596Z,101232.41
2023-05-08T07:04:14.515Z,101228.69
2023-05-08T07:09:18.708Z,101233.00
2023-05-08T07:14:21.501Z,101225.69
2023-05-08T07:19:24.898Z,101229.06
2023-05-08T07:24:29.077Z,101227.03
2023-05-08T07:29:31.896Z,101235.84
2023-05-08T07:34:34.926Z,101229.41
2023-05-08T07:39:39.197Z,101234.59
2023-05-08T07:44:53.869Z,101237.19
2023-05-08T07:49:57.849Z,101230.84
2023-05-08T07:55:01.965Z,101228.06
2023-05-08T08:00:05.640Z,101225.38
2023-05-08T08:05:16.354Z,101221.75
2023-05-08T08:10:20.789Z,101228.75
2023-05-08T08:15:23.679Z,101235.84
2023-05-08T08:20:26.531Z,101227.97
2023-05-08T08:25:30.859Z,101225.31
2023-05-08T08:30:33.701Z,101223.19
2023-05-08T08:35:36.741Z,101227.19
2023-05-08T08:40:44.041Z,101233.66
2023-05-08T08:45:47.219Z,101229.69
2023-05-08T08:50:50.006Z,101236.56
2023-05-08T08:55:55.628Z,101249.97
2023-05-08T09:00:58.511Z,101243.81
2023-05-08T09:06:01.928Z,101247.91
2023-05-08T09:11:06.580Z,101238.31
2023-05-08T09:16:09.437Z,101234.44
2023-05-08T09:21:12.541Z,101228.94
2023-05-08T09:26:27.951Z,101230.25
2023-05-08T09:31:35.845Z,101222.09
2023-05-08T09:36:40.246Z,101227.38
2023-05-08T09:41:57.666Z,101229.88
2023-05-08T09:47:12.768Z,101224.34
2023-05-08T09:52:16.754Z,101226.94
2023-05-08T09:57:21.597Z,101226.84
2023-05-08T10:02:24.584Z,101227.47
2023-05-08T10:07:31.523Z,101227.13
2023-05-08T10:12:38.077Z,101221.69
2023-05-08T10:17:43.662Z,101227.91
2023-05-08T10:22:46.724Z,101229.09
2023-05-08T10:27:54.927Z,101227.03
2023-05-08T10:32:58.902Z,101218.13
2023-05-08T10:38:01.702Z,101212.75
2023-05-08T10:43:07.585Z,101214.13
2023-05-08T10:48:14.713Z,101210.34
2023-05-08T10:53:20.625Z,101193.63
2023-05-08T10:58:35.036Z,101191.72
2023-05-08T11:03:40.190Z,101194.19
2023-05-08T11:08:54.404Z,101191.50
2023-05-08T11:14:00.781Z,101184.94
2023-05-08T11:19:19.517Z,101179.47
2023-05-08T11:24:22.323Z,101184.19
2023-05-08T11:29:26.637Z,101173.28
2023-05-08T11:34:48.816Z,101173.84
2023-05-08T11:39:51.770Z,101157.88
2023-05-08T11:45:03.432Z,101146.94
2023-05-08T11:50:07.309Z,101155.47
2023-05-08T11:55:11.223Z,101157.75
2023-05-08T12:00:16.959Z,101143.28
2023-05-08T12:05:27.544Z,101151.72
2023-05-08T12:10:30.479Z,101145.13
2023-05-08T12:15:34.698Z,101141.84
2023-05-08T12:20:37.596Z,101139.06
2023-05-08T12:25:40.676Z,101140.06
2023-05-08T12:30:44.968Z,101137.47
2023-05-08T12:35:47.830Z,101126.97
2023-05-08T12:40:52.978Z,101122.50
2023-05-08T12:45:57.236Z,101112.00
2023-05-08T12:51:04.274Z,101120.16
2023-05-08T12:56:08.150Z,101104.09
2023-05-08T13:01:13.501Z,101113.06
2023-05-08T13:06:22.675Z,101104.41
2023-05-08T13:11:32.974Z,101094.50
2023-05-08T13:16:44.712Z,101097.34
2023-05-08T13:21:47.866Z,101088.22
2023-05-08T13:26:50.626Z,101076.06
2023-05-08T13:31:55.028Z,101070.97
2023-05-08T13:36:57.848Z,101069.91
2023-05-08T13:42:00.684Z,101063.75
2023-05-08T13:47:05.010Z,101064.47
2023-05-08T13:52:07.873Z,101061.66
2023-05-08T13:57:10.735Z,101063.00
2023-05-08T14:02:15.433Z,101048.75
2023-05-08T14:07:18.489Z,101038.84
2023-05-08T14:12:21.264Z,101028.88
2023-05-08T14:17:25.616Z,101030.06
2023-05-08T14:22:28.770Z,101011.22
2023-05-08T14:27:31.605Z,101020.31
2023-05-08T14:32:35.853Z,101016.41
2023-05-08T14:37:38.691Z,101018.16
2023-05-08T14:42:41.612Z,101008.72
2023-05-08T14:47:46.327Z,101014.63
2023-05-08T14:52:49.487Z,101018.66
2023-05-08T14:57:52.406Z,101027.22
2023-05-08T15:02:57.081Z,101017.28
2023-05-08T15:08:01.476Z,101023.56
2023-05-08T15:13:04.371Z,101014.63
2023-05-08T15:18:08.639Z,101006.88
2023-05-08T15:23:11.532Z,101020.72
2023-05-08T15:28:14.428Z,101011.06
2023-05-08T15:33:18.741Z,101010.28
2023-05-08T15:38:21.469Z,101018.34
2023-05-08T15:43:24.240Z,101018.56
2023-05-08T15:48:28.431Z,101013.63
2023-05-08T15:53:31.360Z,101023.03
2023-05-08T15:58:36.552Z,101018.53
2023-05-08T16:03:40.745Z,101024.03
2023-05-08T16:08:43.989Z,101021.13
2023-05-08T16:13:46.794Z,101016.84
2023-05-08T16:18:50.947Z,101012.19
2023-05-08T16:23:53.988Z,101019.78
2023-05-08T16:28:56.828Z,101018.78
2023-05-08T16:34:00.940Z,101019.09
2023-05-08T16:39:04.025Z,101029.25
2023-05-08T16:44:06.832Z,101026.56
2023-05-08T16:49:11.038Z,101019.31
2023-05-08T16:54:14.042Z,101016.22
2023-05-08T16:59:16.986Z,101020.09
2023-05-08T17:04:21.736Z,101012.91
2023-05-08T17:09:25.314Z,101005.38
2023-05-08T17:14:28.616Z,101001.78
2023-05-08T17:19:32.956Z,100996.88
2023-05-08T17:24:37.302Z,100986.34
2023-05-08T17:29:40.424Z,100986.09
2023-05-08T17:34:44.725Z,100998.91
2023-05-08T17:39:47.592Z,101008.56
2023-05-08T17:44:50.547Z,101010.84
2023-05-08T17:49:54.680Z,101010.19
2023-05-08T17:54:58.007Z,101015.16
2023-05-08T18:00:00.828Z,101028.00
2023-05-08T18:05:05.668Z,101026.03
2023-05-08T18:10:09.693Z,101033.38
2023-05-08T18:15:13.397Z,101026.16
2023-05-08T18:20:17.644Z,101033.16
2023-05-08T18:25:20.784Z,101036.13
2023-05-08T18:30:23.912Z,101034.91
2023-05-08T18:35:28.161Z,101039.56
2023-05-08T18:40:31.299Z,101033.50
2023-05-08T18:45:34.114Z,101042.44
2023-05-08T18:50:38.492Z,101042.69
2023-05-08T18:55:41.680Z,101042.28
2023-05-08T19:00:45.261Z,101049.63
2023-05-08T19:05:51.186Z,101050.22
2023-05-08T19:10:54.049Z,101060.16
2023-05-08T19:15:56.849Z,101061.34
2023-05-08T19:21:02.317Z,101061.47
2023-05-08T19:26:05.301Z,101062.69
2023-05-08T19:31:08.347Z,101069.19
2023-05-08T19:36:12.695Z,101078.13
2023-05-08T19:41:17.187Z,101066.34
2023-05-08T19:46:20.457Z,101068.53
2023-05-08T19:51:25.131Z,101069.50
2023-05-08T19:56:27.955Z,101070.13
2023-05-08T20:01:30.972Z,101056.91
2023-05-08T20:06:35.256Z,101068.28
2023-05-08T20:11:38.123Z,101063.25
2023-05-08T20:16:41.774Z,101071.97
2023-05-08T20:21:46.850Z,101077.72
2023-05-08T20:26:51.784Z,101088.13
2023-05-08T20:31:54.918Z,101081.03
2023-05-08T20:37:00.866Z,101083.22
2023-05-08T20:42:03.686Z,101080.28
2023-05-08T20:47:06.590Z,101081.50
2023-05-08T20:52:10.773Z,101076.97
2023-05-08T20:57:15.716Z,101088.59
2023-05-08T21:02:18.609Z,101085.91
2023-05-08T21:07:22.762Z,101078.69
2023-05-08T21:12:25.743Z,101063.63
2023-05-08T21:17:28.633Z,101060.94
2023-05-08T21:22:34.051Z,101067.06
2023-05-08T21:27:49.890Z,101058.25
2023-05-08T21:32:52.835Z,101067.91
2023-05-08T21:37:57.069Z,101056.50
2023-05-08T21:43:00.050Z,101052.09
2023-05-08T21:48:03.111Z,101052.22
2023-05-08T21:53:07.428Z,101047.81
2023-05-08T21:58:10.231Z,101039.47
2023-05-08T22:03:13.148Z,101037.16
2023-05-08T22:08:17.377Z,101038.25
2023-05-08T22:13:20.358Z,101039.53
2023-05-08T22:18:23.292Z,101036.22
2023-05-08T22:23:27.400Z,101031.28
2023-05-08T22:28:30.179Z,101028.56
2023-05-08T22:33:33.933Z,101040.41
2023-05-08T22:38:38.136Z,101030.22
2023-05-08T22:43:40.871Z,101021.72
2023-05-08T22:48:43.618Z,101013.91
2023-05-08T22:53:48.243Z,101016.91
2023-05-08T22:58:51.137Z,101006.72
2023-05-08T23:03:54.389Z,100999.00
2023-05-08T23:08:58.501Z,101000.94
2023-05-08T23:14:01.292Z,101000.19
2023-05-08T23:19:04.514Z,100993.44
2023-05-08T23:24:09.178Z,100992.69
2023-05-08T23:29:12.008Z,100990.97
2023-05-08T23:34:14.804Z,100993.22
2023-05-08T23:39:19.107Z,100992.66
2023-05-08T23:44:21.919Z,100987.97
2023-05-08T23:49:25.003Z,100973.28
2023-05-08T23:54:29.074Z,100980.06
2023-05-08T23:59:31.922Z,100975.44
